Main page
METAR-TAF:

METAR-TAF

Airports :

Minna Airport

Minna, Nigeria

latitude: 9-37N, longitude: 6-32E, elevation: 260 m

Current weather observation

The report was made 30 minutes ago, at 21:00 UTC
Wind 15 kt from the North/Northeast
Temperature 29°C
Humidity 25%
Pressure 1014 hPa
Visibility: 6000 m

METAR: DNMN 172100Z 03015KT 6000 NSC 29/07 Q1014

Time: 22:30 (21:30 UTC)

Forecast

The report was made 22 hours and 30 minutes ago, at 23:00 UTC
Forecast valid from 17 at 00 UTC to 18 at 06 UTC
Wind 10 kt from the North/Northeast with gusts up to 25 kt
Visibility: 2500 m
haze
Temporary
from 17 at 05 UTC to 17 at 10 UTC
Visibility: 1500 m

TAF: DNMN 162300Z 1700/1806 03010G25KT 2500 HZ NSC TEMPO 1705/1710 1500

Weather observations and forecasts of more than 4000 airports (METAR and TAF reports).

The available stations are represented by yellow and red dots on the map.

Hover mouse over dot to see the name of the station.

Then click to see weather observations and forecasts.

To change the map : click on the green buttons with a black cross to zoom in, on the green button with a dash to zoom out, or on the green arrows for adjacent maps.


METAR-TAF: